West Point, MS (39773)

10:36 PM CDT on September 02, 2014 (GMT -0500)
WestWood II | Change Station
CLOSE
Current Station
Personal Weather Station
Location: West Point, MS
Elevation: 240 ft
Nearby Weather Stations

Elev 240 ft 33.61 °N, 88.68 °W | Updated 6 seconds ago

Clear
Clear
74.3 °F
Feels Like 73 °F
N
1.7
Wind Variable Wind from ENE
Gusts 4.2 mph

Today
High -- | Low -- °F
--% Chance of Precip.
Yesterday
High -- | Low -- °F
Precip. -- in
6:29 AM 7:19 PM
First Quarter, 58% visible
Pressure 30.01 in
Visibility 10.0 miles
Clouds Clear
Heat Index 73 °F
Dew Point 71 °F
Humidity 89%
Rainfall 0.53 in
Snow Depth Not available.
UV 0 out of 12
Pollen 9.80 out of 12
Air Quality Not available.
Flu Activity Not available.
METAR KSTF 030315Z AUTO 00000KT 10SM CLR 23/22 A3001 RMK AO2

More Conditions Fewer Conditions

Pressure 30.01 in
Visibility 10.0 miles
Clouds Clear
Heat Index 73 °F
Dew Point 71 °F
Humidity 89%
Rainfall 0.53 in
Snow Depth Not available.
UV 0 out of 12
Pollen 9.80 out of 12
Air Quality Not available.
Flu Activity Not available.
METAR KSTF 030315Z AUTO 00000KT 10SM CLR 23/22 A3001 RMK AO2

More Conditions Fewer Conditions

10-Day Weather Forecast

Almanac

Astronomy

Sep. 02, 2014 Rise Set
Actual Time 6:29 AM CDT 7:19 PM CDT
Civil Twilight 6:04 AM CDT 7:44 PM CDT
Nautical Twilight 5:34 AM CDT 8:14 PM CDT
Astronomical Twilight 5:03 AM CDT 8:45 PM CDT
Moon 1:53 PM CDT (9/2) No Moon Set
Length of Visible Light 13h 40m
Length of Day
12h 49m
Tomorrow will be 2m 0s shorter.
First Quarter, 58% of the Moon is Illuminated
Today
First Quarter
Sep 8
Full
Sep 15
Last Quarter
Sep 24
New
Oct 1
First Quarter

Today's Extremes

State Highs State Lows

Community

WunderPhotos

Upload Photos

1,749,867 photos uploaded!

WunderBlogs® & News

Nearby

Snow Depth

Station Depth Elevation
No new snow has been reported.

Earthquake Activity

City Distance Mag. Time & Date
No recent earthquake activity has been reported nearby.
Minimum magnitude displayed is 2.5.

Coastal Water Temperatures

Place Temperature
No Stations Reporting

Nearby Weather Stations